»·PEaware :: N24SQ CYFB-KPMB

N24SQ :: CYFB-KPMB

FLIGHT INFORMATION

Flight Status: Arrived
Operator: Privately registered:
United States
More flights under this callsign
Pilot: Gabor H. (24209)
Aircraft: Unknown
(PC24)
More flights by this aircraft type
Origin: CYFB Iqaluit
Canada
Destination: KPMB Pembina Mun
United States
More flights between these airports :: More routes between these airports
Route: KELMU YRL HML
File this flight plan on PilotEdge
Remarks: PC24 US FERRY FLIGHT LEG5
Altitude:
(Current/Filed)
40,000ft
Speed:
(Current/Filed)
460kts
Departed: 24-Sep-19 06:11 AM
Arrived: 24-Sep-19 09:27 AM
Distance/Time
Traveled:
1283nm/3:16
Distance/Time
To Go:
Arrived

Flight Plot

Page will automatically refresh every two minutes.

Flight plan parsing failed; only flown route is shown


Map Options




Map Legend


Flown Route
Filed Route
Departure Airport
Arrival Airport
Navaid (VOR, NDB)
Fix

Horizontal Profiles

Position Reports

Time Latitude Longitude Heading Altitude Ground
Speed
24-Sep-19 05:57 63.757497 -68.546662 140 115ft 0kts
24-Sep-19 05:58 63.757497 -68.546662 140 115ft 0kts
24-Sep-19 05:59 63.757497 -68.546662 140 115ft 0kts
24-Sep-19 06:00 63.757497 -68.546661 140 115ft 0kts
24-Sep-19 06:01 63.757487 -68.546643 140 115ft 1kts
24-Sep-19 06:02 63.754518 -68.541538 128 115ft 16kts
24-Sep-19 06:03 63.751119 -68.538245 167 115ft 11kts
24-Sep-19 06:03 63.749242 -68.535290 136 115ft 11kts
24-Sep-19 06:05 63.748650 -68.535593 224 115ft 0kts
24-Sep-19 06:05 63.748648 -68.535598 224 115ft 0kts
24-Sep-19 06:06 63.748646 -68.535603 224 115ft 0kts
24-Sep-19 06:08 63.748643 -68.535610 224 115ft 0kts
24-Sep-19 06:08 63.748641 -68.535614 224 115ft 0kts
24-Sep-19 06:09 63.748724 -68.538740 315 115ft 37kts
24-Sep-19 06:10 63.775984 -68.599287 307 2273ft 183kts
24-Sep-19 06:11 63.750430 -68.667473 171 5302ft 206kts
24-Sep-19 06:12 63.690870 -68.619261 162 8380ft 259kts
24-Sep-19 06:13 63.629867 -68.671597 245 11408ft 263kts
24-Sep-19 06:14 63.611291 -68.857297 262 14490ft 339kts
24-Sep-19 06:15 63.590776 -69.072590 247 17508ft 369kts
24-Sep-19 06:16 63.532070 -69.270517 236 20524ft 390kts
24-Sep-19 06:17 63.466212 -69.465509 237 23522ft 392kts
24-Sep-19 06:18 63.402552 -69.656446 238 26501ft 377kts
24-Sep-19 06:19 63.340318 -69.845920 239 29505ft 382kts
24-Sep-19 06:20 63.276533 -70.039839 240 32509ft 394kts
24-Sep-19 06:21 63.211892 -70.234520 239 35502ft 395kts
24-Sep-19 06:22 63.145098 -70.434826 238 38505ft 415kts
24-Sep-19 06:23 63.074061 -70.645019 236 39878ft 440kts
24-Sep-19 06:24 62.999390 -70.862735 236 39863ft 449kts
24-Sep-19 06:25 62.923245 -71.082849 236 39857ft 452kts
24-Sep-19 06:26 62.846908 -71.302099 236 39853ft 453kts
24-Sep-19 06:27 62.770289 -71.520603 236 39851ft 453kts
24-Sep-19 06:28 62.693462 -71.737943 236 39846ft 453kts
24-Sep-19 06:29 62.616349 -71.954217 235 39839ft 452kts
24-Sep-19 06:30 62.539004 -72.169058 236 39814ft 451kts
24-Sep-19 06:31 62.461570 -72.382381 236 39808ft 450kts
24-Sep-19 06:32 62.383925 -72.594349 236 39803ft 450kts
24-Sep-19 06:33 62.307317 -72.801537 236 39799ft 450kts
24-Sep-19 06:34 62.228793 -73.011938 235 39795ft 450kts
24-Sep-19 06:35 62.150288 -73.220322 235 39797ft 450kts
24-Sep-19 06:36 62.071433 -73.427731 235 39793ft 450kts
24-Sep-19 06:37 61.992342 -73.633861 235 39787ft 449kts
24-Sep-19 06:38 61.913475 -73.837445 236 39781ft 445kts
24-Sep-19 06:39 61.834817 -74.039042 235 39776ft 443kts
24-Sep-19 06:40 61.764739 -74.217180 235 39771ft 443kts
24-Sep-19 06:41 61.686810 -74.413558 235 39767ft 442kts
24-Sep-19 06:42 61.610695 -74.603673 235 39764ft 442kts
24-Sep-19 06:43 61.533591 -74.794621 235 39765ft 441kts
24-Sep-19 06:44 61.454113 -74.989780 234 39765ft 440kts
24-Sep-19 06:45 61.374564 -75.183453 234 39767ft 439kts
24-Sep-19 06:46 61.294937 -75.375686 234 39769ft 438kts
24-Sep-19 06:47 61.215123 -75.566747 234 39772ft 437kts
24-Sep-19 06:48 61.135169 -75.756536 234 39767ft 437kts
24-Sep-19 06:49 61.054737 -75.945848 233 39769ft 437kts
24-Sep-19 06:50 60.974437 -76.133323 233 39774ft 436kts
24-Sep-19 06:51 60.893973 -76.319573 233 39780ft 435kts
24-Sep-19 06:52 60.813269 -76.504859 232 39779ft 436kts
24-Sep-19 06:53 60.732265 -76.689287 232 39764ft 436kts
24-Sep-19 06:54 60.651041 -76.872710 232 39766ft 435kts
24-Sep-19 06:55 60.569613 -77.055131 232 39769ft 435kts
24-Sep-19 06:56 60.487736 -77.237098 232 39773ft 435kts
24-Sep-19 06:57 60.405929 -77.417473 232 39779ft 435kts
24-Sep-19 06:58 60.323985 -77.596731 231 39784ft 434kts
24-Sep-19 06:59 60.241950 -77.774780 231 39786ft 433kts
24-Sep-19 07:00 60.159755 -77.951824 231 39786ft 433kts
24-Sep-19 07:01 60.077157 -78.128410 230 39785ft 432kts
24-Sep-19 07:02 59.994870 -78.302947 230 39745ft 431kts
24-Sep-19 07:03 59.912564 -78.476235 230 39744ft 430kts
24-Sep-19 07:04 59.830192 -78.648464 228 39748ft 428kts
24-Sep-19 07:05 59.748176 -78.818654 228 39751ft 425kts
24-Sep-19 07:06 59.666312 -78.987347 228 39755ft 424kts
24-Sep-19 07:07 59.584212 -79.155354 228 39758ft 423kts
24-Sep-19 07:08 59.502356 -79.321767 228 39758ft 422kts
24-Sep-19 07:09 59.420510 -79.487176 227 39758ft 422kts
24-Sep-19 07:10 59.338655 -79.651846 227 39758ft 422kts
24-Sep-19 07:11 59.256620 -79.816663 228 39759ft 421kts
24-Sep-19 07:12 59.175772 -79.981832 229 39760ft 421kts
24-Sep-19 07:13 59.097762 -80.151310 230 39761ft 420kts
24-Sep-19 07:14 59.021204 -80.322590 230 39761ft 420kts
24-Sep-19 07:15 58.945164 -80.494155 230 39761ft 419kts
24-Sep-19 07:16 58.869289 -80.665287 230 39746ft 419kts
24-Sep-19 07:17 58.793043 -80.836546 230 39739ft 419kts
24-Sep-19 07:18 58.716856 -81.006652 230 39708ft 419kts
24-Sep-19 07:19 58.640522 -81.175965 230 39708ft 419kts
24-Sep-19 07:20 58.563985 -81.344539 230 39707ft 419kts
24-Sep-19 07:21 58.487252 -81.512345 230 39730ft 419kts
24-Sep-19 07:22 58.410347 -81.679323 229 39746ft 419kts
24-Sep-19 07:23 58.332820 -81.846446 229 39743ft 419kts
24-Sep-19 07:24 58.255411 -82.012118 229 39740ft 419kts
24-Sep-19 07:25 58.178056 -82.176609 228 39736ft 417kts
24-Sep-19 07:26 58.100652 -82.339999 228 39732ft 417kts
24-Sep-19 07:27 58.023095 -82.502563 228 39728ft 417kts
24-Sep-19 07:28 57.945345 -82.664385 228 39724ft 417kts
24-Sep-19 07:29 57.867100 -82.826082 228 39719ft 417kts
24-Sep-19 07:30 57.788898 -82.986572 227 39714ft 417kts
24-Sep-19 07:31 57.710478 -83.146373 227 39708ft 417kts
24-Sep-19 07:32 57.631824 -83.305555 227 39702ft 417kts
24-Sep-19 07:33 57.552945 -83.464094 227 39680ft 417kts
24-Sep-19 07:34 57.473593 -83.622496 227 39671ft 417kts
24-Sep-19 07:35 57.394263 -83.779773 227 39663ft 417kts
24-Sep-19 07:36 57.314777 -83.936301 227 39621ft 417kts
24-Sep-19 07:37 57.235059 -84.092240 226 39612ft 418kts
24-Sep-19 07:38 57.155055 -84.247659 226 39606ft 418kts
24-Sep-19 07:39 57.074477 -84.403128 226 39601ft 418kts
24-Sep-19 07:40 56.993970 -84.557434 226 39596ft 418kts
24-Sep-19 07:41 56.913310 -84.711013 226 39592ft 418kts
24-Sep-19 07:42 56.832429 -84.863998 226 39587ft 418kts
24-Sep-19 07:43 56.756790 -85.006167 226 39583ft 419kts
24-Sep-19 07:44 56.675107 -85.158689 225 39579ft 419kts
24-Sep-19 07:45 56.593471 -85.310112 225 39590ft 420kts
24-Sep-19 07:46 56.511588 -85.460998 225 39579ft 420kts
24-Sep-19 07:47 56.429489 -85.611304 225 39486ft 420kts
24-Sep-19 07:48 56.347227 -85.760939 225 39480ft 420kts
24-Sep-19 07:49 56.264549 -85.910367 225 39470ft 420kts
24-Sep-19 07:50 56.181877 -86.058794 225 39466ft 421kts
24-Sep-19 07:51 56.098559 -86.207380 225 39461ft 423kts
24-Sep-19 07:52 56.014816 -86.355726 225 39460ft 424kts
24-Sep-19 07:53 55.930853 -86.503525 225 39461ft 424kts
24-Sep-19 07:54 55.846540 -86.651032 225 39456ft 423kts
24-Sep-19 07:55 55.762497 -86.797169 225 39452ft 422kts
24-Sep-19 07:56 55.678389 -86.942533 224 39450ft 422kts
24-Sep-19 07:57 55.594205 -87.087099 224 39450ft 421kts
24-Sep-19 07:58 55.511457 -87.228321 224 39451ft 421kts
24-Sep-19 07:59 55.426939 -87.371672 224 39453ft 420kts
24-Sep-19 08:00 55.342644 -87.513760 224 39457ft 419kts
24-Sep-19 08:01 55.258302 -87.655050 224 39462ft 419kts
24-Sep-19 08:02 55.174826 -87.794026 224 39457ft 419kts
24-Sep-19 08:04 55.090208 -87.934027 224 39461ft 419kts
24-Sep-19 08:05 55.005442 -88.073411 224 39464ft 419kts
24-Sep-19 08:06 54.920184 -88.212721 224 39465ft 419kts
24-Sep-19 08:07 54.835064 -88.350974 224 39473ft 419kts
24-Sep-19 08:08 54.749680 -88.488814 224 39481ft 419kts
24-Sep-19 08:09 54.664228 -88.625936 223 39488ft 419kts
24-Sep-19 08:10 54.578564 -88.762576 223 39491ft 419kts
24-Sep-19 08:11 54.492746 -88.898640 223 39495ft 419kts
24-Sep-19 08:12 54.406754 -89.034169 223 39500ft 420kts
24-Sep-19 08:13 54.320339 -89.169552 223 39504ft 420kts
24-Sep-19 08:14 54.233990 -89.304034 223 39507ft 420kts
24-Sep-19 08:15 54.148853 -89.435856 223 39509ft 420kts
24-Sep-19 08:16 54.062145 -89.569322 223 39510ft 420kts
24-Sep-19 08:17 53.975162 -89.702449 222 39511ft 419kts
24-Sep-19 08:18 53.890157 -89.831809 222 39512ft 419kts
24-Sep-19 08:19 53.802643 -89.964212 222 39512ft 419kts
24-Sep-19 08:20 53.715609 -90.095122 222 39513ft 419kts
24-Sep-19 08:21 53.628464 -90.225440 222 39515ft 419kts
24-Sep-19 08:22 53.541090 -90.355347 222 39518ft 419kts
24-Sep-19 08:23 53.453347 -90.485063 222 39522ft 419kts
24-Sep-19 08:23 53.384276 -90.586660 222 39523ft 418kts
24-Sep-19 08:25 53.281892 -90.736443 222 39526ft 418kts
24-Sep-19 08:26 53.194236 -90.863891 222 39528ft 418kts
24-Sep-19 08:26 53.120948 -90.969894 222 39529ft 418kts
24-Sep-19 08:28 53.018190 -91.117689 222 39535ft 418kts
24-Sep-19 08:28 52.944937 -91.222458 222 39536ft 418kts
24-Sep-19 08:29 52.856419 -91.348409 222 39538ft 418kts
24-Sep-19 08:31 52.753332 -91.494221 221 39541ft 418kts
24-Sep-19 08:31 52.679476 -91.598110 221 39543ft 418kts
24-Sep-19 08:32 52.590783 -91.722251 221 39546ft 419kts
24-Sep-19 08:33 52.501966 -91.845884 221 39545ft 419kts
24-Sep-19 08:34 52.412734 -91.969428 221 39547ft 419kts
24-Sep-19 08:35 52.323570 -92.092179 221 39549ft 419kts
24-Sep-19 08:36 52.234155 -92.214645 221 39552ft 420kts
24-Sep-19 08:37 52.144601 -92.336647 221 39560ft 420kts
24-Sep-19 08:38 52.056030 -92.456679 221 39565ft 420kts
24-Sep-19 08:39 51.966167 -92.577821 221 39570ft 420kts
24-Sep-19 08:40 51.884324 -92.687616 221 39576ft 420kts
24-Sep-19 08:41 51.795419 -92.806328 221 39582ft 420kts
24-Sep-19 08:42 51.705312 -92.926065 221 39588ft 420kts
24-Sep-19 08:43 51.615147 -93.045302 221 39594ft 420kts
24-Sep-19 08:44 51.524535 -93.164571 221 39599ft 420kts
24-Sep-19 08:45 51.434152 -93.283040 221 39604ft 420kts
24-Sep-19 08:46 51.343673 -93.401208 221 39609ft 420kts
24-Sep-19 08:47 51.253242 -93.519064 221 39611ft 420kts
24-Sep-19 08:48 51.168428 -93.629752 221 39612ft 419kts
24-Sep-19 08:49 51.080358 -93.747530 223 39612ft 419kts
24-Sep-19 08:50 50.995556 -93.874991 226 39612ft 418kts
24-Sep-19 08:51 50.914722 -94.002381 226 39614ft 418kts
24-Sep-19 08:52 50.832799 -94.132959 227 39618ft 418kts
24-Sep-19 08:53 50.757867 -94.252571 227 39623ft 418kts
24-Sep-19 08:54 50.711253 -94.326852 227 39627ft 418kts
24-Sep-19 08:55 50.630600 -94.455002 227 39636ft 418kts
24-Sep-19 08:56 50.567510 -94.554847 227 39644ft 419kts
24-Sep-19 08:57 50.485482 -94.684107 227 39641ft 419kts
24-Sep-19 08:58 50.402780 -94.813729 227 37656ft 417kts
24-Sep-19 08:59 50.321901 -94.939922 227 35565ft 407kts
24-Sep-19 09:00 50.241930 -95.064285 227 33471ft 404kts
24-Sep-19 09:01 50.161387 -95.188898 226 31382ft 413kts
24-Sep-19 09:02 50.081934 -95.310830 225 29356ft 416kts
24-Sep-19 09:03 50.015412 -95.412309 225 27726ft 416kts
24-Sep-19 09:04 49.936882 -95.531702 225 25812ft 409kts
24-Sep-19 09:05 49.856160 -95.654193 226 23812ft 403kts
24-Sep-19 09:06 49.776636 -95.774449 226 21812ft 397kts
24-Sep-19 09:07 49.698207 -95.892558 226 19778ft 391kts
24-Sep-19 09:08 49.621729 -96.007231 226 17796ft 385kts
24-Sep-19 09:09 49.551776 -96.111715 226 15956ft 374kts
24-Sep-19 09:10 49.478121 -96.221419 226 13949ft 360kts
24-Sep-19 09:11 49.407678 -96.326129 226 11953ft 346kts
24-Sep-19 09:12 49.344725 -96.419683 227 10427ft 284kts
24-Sep-19 09:13 49.291031 -96.500769 227 10008ft 261kts
24-Sep-19 09:14 49.249816 -96.562260 227 9356ft 253kts
24-Sep-19 09:15 49.203646 -96.630247 227 8163ft 250kts
24-Sep-19 09:16 49.153109 -96.703946 227 6661ft 253kts
24-Sep-19 09:17 49.101960 -96.778065 226 5311ft 250kts
24-Sep-19 09:18 49.051589 -96.850937 226 4314ft 249kts
24-Sep-19 09:19 49.001703 -96.922999 225 3313ft 245kts
24-Sep-19 09:20 48.952840 -96.993586 225 3004ft 241kts
24-Sep-19 09:21 48.912807 -97.070839 242 2989ft 203kts
24-Sep-19 09:22 48.888916 -97.135168 242 2192ft 154kts
24-Sep-19 09:23 48.878154 -97.193139 282 2006ft 142kts
24-Sep-19 09:24 48.910519 -97.222414 338 1556ft 158kts
24-Sep-19 09:25 48.942323 -97.240651 339 800ft 86kts
24-Sep-19 09:26 48.948407 -97.242804 68 800ft 16kts
24-Sep-19 09:27 48.949642 -97.239614 88 800ft 0kts

Navigation Log

Ident Type
Flight plan parsing failed, navigation log unavailable